Time;durP1;ratioP1;P1;durP2;ratioP2;P2;SDS_P1;SDS_P2;PMS_P1;PMS_P2;Temp;Humidity;BMP_temperature;BMP_pressure;BME280_temperature;BME280_humidity;BME280_pressure;Samples;Min_cycle;Max_cycle;Signal;HPM_P1;HPM_P2
2021/07/07 05:37:22;;;;;;;7.80;7.10;;;16.60;99.90;;;;;;6042810;23;20445;-87
2021/07/07 05:40:23;;;;;;;9.37;7.33;;;16.70;99.90;;;;;;6124403;23;20427;-87
2021/07/07 05:42:57;;;;;;;8.20;7.50;;;16.80;99.90;;;;;;6123850;23;20423;-87
2021/07/07 05:49:03;;;;;;;8.40;6.07;;;17.00;99.90;;;;;;6124568;23;20409;-86
2021/07/07 05:51:30;;;;;;;6.87;6.27;;;17.00;99.90;;;;;;6124979;23;20434;-86
2021/07/07 05:53:58;;;;;;;8.40;7.70;;;17.10;99.90;;;;;;6125387;23;20459;-84
2021/07/07 05:56:25;;;;;;;10.77;7.77;;;17.20;99.90;;;;;;6125626;23;20422;-86
2021/07/07 05:58:52;;;;;;;6.97;6.47;;;17.20;99.90;;;;;;6125438;23;20799;-88
2021/07/07 06:01:20;;;;;;;6.93;6.10;;;17.10;99.90;;;;;;6125139;23;20433;-87
2021/07/07 06:03:47;;;;;;;5.73;5.23;;;17.00;99.90;;;;;;6124888;23;20745;-88
2021/07/07 06:06:13;;;;;;;5.37;4.87;;;17.10;99.90;;;;;;6124766;23;20870;-87
2021/07/07 06:08:40;;;;;;;5.90;5.40;;;17.10;99.90;;;;;;6124003;23;20413;-87
2021/07/07 06:11:08;;;;;;;6.20;5.60;;;17.20;99.90;;;;;;6112345;23;20492;-87
2021/07/07 06:13:35;;;;;;;6.40;5.63;;;17.30;99.90;;;;;;6097160;23;20525;-88
2021/07/07 06:16:02;;;;;;;4.27;3.97;;;17.40;99.90;;;;;;6101275;23;20438;-86
2021/07/07 06:18:29;;;;;;;5.60;4.93;;;17.50;99.90;;;;;;6094970;23;20747;-86
2021/07/07 06:20:56;;;;;;;6.47;4.30;;;17.50;99.90;;;;;;6094782;23;20527;-87
2021/07/07 06:23:23;;;;;;;4.37;3.97;;;17.60;99.90;;;;;;6094681;23;20415;-87
2021/07/07 06:25:50;;;;;;;3.90;3.60;;;17.70;99.90;;;;;;6094216;23;20423;-87
2021/07/07 06:28:18;;;;;;;5.17;3.50;;;17.70;99.90;;;;;;6094939;23;20746;-87
2021/07/07 06:30:54;;;;;;;4.10;3.77;;;17.80;99.90;;;;;;6094814;23;20467;-86
2021/07/07 06:33:24;;;;;;;2.60;2.40;;;17.80;99.90;;;;;;6094332;23;20442;-86
2021/07/07 06:35:51;;;;;;;2.23;2.03;;;17.90;99.90;;;;;;6097078;23;20419;-84
2021/07/07 06:38:17;;;;;;;2.93;2.63;;;18.00;99.90;;;;;;6099157;23;20414;-84
2021/07/07 06:40:44;;;;;;;4.23;3.10;;;18.10;99.90;;;;;;6097069;23;20434;-84
2021/07/07 06:43:11;;;;;;;3.43;3.13;;;18.20;99.90;;;;;;6096457;23;20430;-84
2021/07/07 06:45:39;;;;;;;3.67;3.20;;;18.20;99.90;;;;;;6096051;23;20414;-84
2021/07/07 06:48:08;;;;;;;2.63;2.43;;;18.30;99.90;;;;;;6097883;23;20441;-84
2021/07/07 06:50:35;;;;;;;4.13;2.20;;;18.30;99.90;;;;;;6096636;23;20946;-84
2021/07/07 06:53:03;;;;;;;2.90;2.70;;;18.30;99.90;;;;;;6098180;23;20419;-84
2021/07/07 06:55:31;;;;;;;2.40;2.20;;;18.30;99.90;;;;;;6100015;23;20477;-85
2021/07/07 06:57:59;;;;;;;2.40;2.23;;;18.30;99.90;;;;;;6098999;23;20436;-84
2021/07/07 07:00:33;;;;;;;2.60;2.40;;;18.30;99.90;;;;;;6097610;23;20464;-85
2021/07/07 07:03:01;;;;;;;2.43;1.90;;;18.20;99.90;;;;;;6098085;23;20406;-84
2021/07/07 07:05:28;;;;;;;3.60;2.20;;;18.20;99.90;;;;;;6112891;23;20464;-84
2021/07/07 07:07:55;;;;;;;2.80;2.60;;;18.20;99.90;;;;;;6097876;23;20510;-84
2021/07/07 07:10:21;;;;;;;2.87;2.67;;;18.20;99.90;;;;;;6097029;23;20421;-84
2021/07/07 07:12:48;;;;;;;5.17;2.50;;;18.20;99.90;;;;;;6097383;23;20479;-85
2021/07/07 07:15:16;;;;;;;2.70;2.50;;;18.20;99.90;;;;;;6097352;23;20451;-85
2021/07/07 07:17:43;;;;;;;2.87;2.67;;;18.20;99.90;;;;;;6097389;23;20419;-85
2021/07/07 07:20:14;;;;;;;2.60;2.40;;;18.20;99.90;;;;;;6096808;23;20421;-84
2021/07/07 07:22:41;;;;;;;5.43;3.30;;;18.20;99.90;;;;;;6096768;23;20403;-85
2021/07/07 07:25:10;;;;;;;3.40;3.10;;;18.20;99.90;;;;;;6097368;23;20819;-85
2021/07/07 07:27:37;;;;;;;4.73;3.70;;;18.30;99.90;;;;;;6097270;23;20418;-84
2021/07/07 07:30:05;;;;;;;3.80;2.77;;;18.30;99.90;;;;;;6097527;23;20416;-84
2021/07/07 07:32:32;;;;;;;2.70;2.50;;;18.40;99.90;;;;;;6097408;23;20411;-85
2021/07/07 07:34:59;;;;;;;3.37;3.07;;;18.50;99.90;;;;;;6097292;23;20962;-85
2021/07/07 07:37:36;;;;;;;3.67;2.87;;;18.60;99.90;;;;;;6097746;23;20458;-85
2021/07/07 07:40:09;;;;;;;5.10;3.07;;;18.70;99.90;;;;;;6097473;23;20431;-86
2021/07/07 07:42:36;;;;;;;4.60;3.30;;;18.90;99.90;;;;;;6097285;23;20431;-85
2021/07/07 07:45:03;;;;;;;3.03;2.70;;;19.00;99.90;;;;;;6097585;23;20411;-85
2021/07/07 07:47:30;;;;;;;1.83;1.70;;;19.10;99.90;;;;;;6097350;23;20420;-86
2021/07/07 07:49:57;;;;;;;2.33;1.73;;;19.00;99.90;;;;;;6097212;23;20506;-85
2021/07/07 07:52:24;;;;;;;1.97;1.77;;;18.70;99.90;;;;;;6097290;23;20446;-86
2021/07/07 07:54:52;;;;;;;1.73;1.50;;;18.40;99.90;;;;;;6110912;23;20549;-85
2021/07/07 07:57:19;;;;;;;3.53;2.20;;;18.30;99.90;;;;;;6098002;23;20497;-86
2021/07/07 07:59:45;;;;;;;2.57;2.37;;;18.30;99.90;;;;;;6097343;23;20419;-85
2021/07/07 08:02:12;;;;;;;2.80;2.27;;;18.40;99.90;;;;;;6097050;23;20436;-86
2021/07/07 08:04:39;;;;;;;2.47;2.10;;;18.50;99.90;;;;;;6097450;23;20411;-85
2021/07/07 08:07:06;;;;;;;2.83;2.30;;;18.50;99.90;;;;;;6097485;23;20447;-86
2021/07/07 08:09:32;;;;;;;2.83;2.33;;;18.60;99.90;;;;;;6097357;23;20419;-85
2021/07/07 08:12:01;;;;;;;4.77;2.17;;;18.70;99.90;;;;;;6097056;23;20449;-85
2021/07/07 08:14:27;;;;;;;2.57;2.37;;;18.80;99.90;;;;;;6097478;23;20776;-85
2021/07/07 08:16:54;;;;;;;3.00;1.70;;;18.90;99.90;;;;;;6097311;23;20907;-85
2021/07/07 08:19:21;;;;;;;2.13;2.03;;;18.90;99.90;;;;;;6097430;23;20419;-85
2021/07/07 08:21:48;;;;;;;2.50;1.87;;;18.90;99.90;;;;;;6096694;23;20788;-85
2021/07/07 08:24:15;;;;;;;1.90;1.70;;;18.90;99.90;;;;;;6097300;23;20602;-85
2021/07/07 08:26:41;;;;;;;2.67;1.77;;;18.90;99.90;;;;;;6096387;23;20423;-85
2021/07/07 08:29:09;;;;;;;2.30;1.37;;;19.00;99.90;;;;;;6096553;23;20945;-85
2021/07/07 08:31:37;;;;;;;1.63;1.50;;;19.00;99.90;;;;;;6096397;23;20442;-85
2021/07/07 08:34:04;;;;;;;3.63;3.10;;;19.00;99.90;;;;;;6096866;23;20922;-85
2021/07/07 08:36:31;;;;;;;2.70;2.50;;;19.00;99.90;;;;;;6096983;23;20466;-85
2021/07/07 08:38:57;;;;;;;2.33;2.13;;;19.00;99.90;;;;;;6096989;23;20808;-85
2021/07/07 08:41:24;;;;;;;2.47;2.23;;;19.00;99.90;;;;;;6096566;23;20440;-85
2021/07/07 08:43:51;;;;;;;4.30;2.97;;;19.00;99.90;;;;;;6105449;23;20420;-85
2021/07/07 08:46:19;;;;;;;2.60;2.40;;;19.00;99.90;;;;;;6097865;23;20430;-85
2021/07/07 08:48:46;;;;;;;2.93;2.23;;;19.10;99.90;;;;;;6097064;23;20423;-85
2021/07/07 08:51:13;;;;;;;2.47;1.90;;;19.10;99.90;;;;;;6097072;23;20436;-85
2021/07/07 08:53:42;;;;;;;3.10;2.80;;;19.20;99.90;;;;;;6096717;23;20423;-84
2021/07/07 08:56:08;;;;;;;5.03;2.43;;;19.20;99.90;;;;;;6096762;23;20533;-85
2021/07/07 08:58:35;;;;;;;4.27;2.90;;;19.30;99.90;;;;;;6096815;23;20420;-85
2021/07/07 09:01:03;;;;;;;2.60;2.13;;;19.40;99.90;;;;;;6096854;23;20444;-85
2021/07/07 09:03:31;;;;;;;3.13;2.93;;;19.50;99.90;;;;;;6096440;23;20885;-84
2021/07/07 09:06:08;;;;;;;4.00;2.43;;;19.70;99.90;;;;;;6096832;23;20751;-83
2021/07/07 09:08:36;;;;;;;2.33;1.97;;;19.90;99.90;;;;;;6097014;23;20786;-85
2021/07/07 09:11:18;;;;;;;1.67;1.37;;;20.10;99.90;;;;;;6096182;23;20479;-84
2021/07/07 09:13:47;;;;;;;4.10;1.60;;;20.30;99.90;;;;;;6096252;23;20402;-85
2021/07/07 09:16:15;;;;;;;3.20;1.70;;;20.40;99.90;;;;;;6096600;23;20452;-85
2021/07/07 09:18:45;;;;;;;2.10;1.40;;;20.60;99.90;;;;;;6096318;23;20920;-85
2021/07/07 09:21:27;;;;;;;2.97;1.63;;;20.80;99.90;;;;;;6096411;23;20551;-85
2021/07/07 09:23:54;;;;;;;1.50;1.27;;;20.90;99.90;;;;;;6096405;23;20437;-85
2021/07/07 09:26:27;;;;;;;1.83;1.43;;;21.00;99.90;;;;;;6096421;23;20416;-85
2021/07/07 09:28:54;;;;;;;2.10;1.80;;;21.10;99.90;;;;;;6096138;23;20401;-84
2021/07/07 09:31:37;;;;;;;1.93;1.83;;;21.10;99.90;;;;;;6095527;23;21019;-83
2021/07/07 09:34:17;;;;;;;2.23;1.60;;;21.10;99.90;;;;;;6109937;23;20468;-85
2021/07/07 09:36:46;;;;;;;3.30;1.87;;;21.10;99.90;;;;;;6096896;23;20401;-85
2021/07/07 09:39:16;;;;;;;2.30;2.03;;;21.20;99.90;;;;;;6096747;23;20476;-84
2021/07/07 09:41:43;;;;;;;2.80;2.00;;;21.10;99.90;;;;;;6095881;23;20944;-84
2021/07/07 09:44:11;;;;;;;2.97;1.83;;;21.10;99.90;;;;;;6097037;23;20419;-85
2021/07/07 09:46:38;;;;;;;2.40;1.97;;;21.10;99.90;;;;;;6096757;23;20475;-85
2021/07/07 09:49:05;;;;;;;3.67;2.30;;;21.10;99.90;;;;;;6096378;23;20440;-85
2021/07/07 09:51:34;;;;;;;3.10;1.93;;;21.00;99.90;;;;;;6095612;23;20436;-85
2021/07/07 09:54:09;;;;;;;2.97;2.77;;;21.00;99.90;;;;;;6096389;23;20416;-84
2021/07/07 09:56:36;;;;;;;3.70;2.03;;;20.80;99.90;;;;;;6095927;23;20487;-85
2021/07/07 09:59:03;;;;;;;3.17;2.53;;;20.60;99.90;;;;;;6096427;23;20792;-84
2021/07/07 10:01:30;;;;;;;4.50;2.73;;;20.50;99.90;;;;;;6096097;23;20433;-85
2021/07/07 10:03:59;;;;;;;3.10;2.53;;;20.50;99.90;;;;;;6095946;23;20413;-85
2021/07/07 10:06:26;;;;;;;2.90;2.67;;;20.50;99.90;;;;;;6095762;23;20886;-85
2021/07/07 10:08:54;;;;;;;2.70;2.50;;;20.50;99.90;;;;;;6095645;23;20405;-84
2021/07/07 10:11:22;;;;;;;2.93;2.30;;;20.60;99.90;;;;;;6095450;23;20445;-84
2021/07/07 10:13:52;;;;;;;2.13;2.03;;;20.70;99.90;;;;;;6095868;23;20424;-84
2021/07/07 10:16:19;;;;;;;2.60;2.10;;;20.80;99.90;;;;;;6096119;23;20453;-85
2021/07/07 10:18:47;;;;;;;2.87;2.43;;;20.90;99.90;;;;;;6095489;23;20414;-84
2021/07/07 10:21:14;;;;;;;2.43;2.23;;;21.00;99.90;;;;;;6096417;23;20815;-84
2021/07/07 10:23:42;;;;;;;4.43;2.50;;;21.10;99.90;;;;;;6108953;23;20508;-84
2021/07/07 10:26:12;;;;;;;2.50;2.30;;;21.20;99.90;;;;;;6096743;23;20415;-84
2021/07/07 10:28:39;;;;;;;2.20;2.10;;;21.30;99.90;;;;;;6097746;23;20904;-85
2021/07/07 10:31:07;;;;;;;2.70;2.50;;;21.40;99.90;;;;;;6098534;23;20441;-85
2021/07/07 10:33:36;;;;;;;3.40;2.27;;;21.50;99.90;;;;;;6097811;23;20490;-84
2021/07/07 10:36:18;;;;;;;2.33;2.10;;;21.60;99.90;;;;;;6097831;23;20963;-84
2021/07/07 10:39:01;;;;;;;2.20;2.10;;;21.70;99.90;;;;;;6097907;23;20396;-83
2021/07/07 10:41:53;;;;;;;2.67;1.63;;;21.80;99.90;;;;;;6097355;23;20438;-83
2021/07/07 10:44:52;;;;;;;1.43;1.33;;;22.00;99.90;;;;;;6098206;23;20402;-84
2021/07/07 10:47:33;;;;;;;1.70;1.60;;;22.10;99.90;;;;;;6097637;23;20496;-84
2021/07/07 10:50:01;;;;;;;1.50;1.40;;;22.20;99.90;;;;;;6097968;23;20476;-83
2021/07/07 10:52:35;;;;;;;1.77;1.67;;;22.20;99.90;;;;;;6097637;23;20713;-84
2021/07/07 10:55:04;;;;;;;2.07;1.97;;;22.20;99.90;;;;;;6097779;23;20513;-84
2021/07/07 10:57:36;;;;;;;1.50;1.40;;;22.20;99.90;;;;;;6097849;23;20419;-84
2021/07/07 11:00:07;;;;;;;1.53;1.43;;;22.20;99.90;;;;;;6097829;23;20407;-84
2021/07/07 11:02:34;;;;;;;1.60;1.50;;;22.10;99.90;;;;;;6097589;23;20413;-84
2021/07/07 11:05:04;;;;;;;1.53;1.43;;;22.10;99.90;;;;;;6097790;23;20405;-84
2021/07/07 11:07:41;;;;;;;1.90;1.43;;;22.20;99.90;;;;;;6097454;23;20445;-84
2021/07/07 11:10:12;;;;;;;1.60;1.50;;;22.20;99.90;;;;;;6097748;23;20421;-83
2021/07/07 14:12:44;;;;;;;1.30;1.20;;;27.10;94.70;;;;;;5973863;23;20583;-85
2021/07/07 14:16:01;;;;;;;;;;;;;;;;;;;;;
2021/07/07 14:29:50;;;;;;;;;;;;;;;;;;;;;
2021/07/07 19:17:15;;;;;;;;;;;;;;;;;;;;;
2021/07/07 19:22:54;;;;;;;1.40;1.30;;;25.60;78.60;;;;;;6072771;23;20441;-86
2021/07/07 19:45:36;;;;;;;1.30;1.20;;;23.10;90.50;;;;;;5880021;24;20425;-86
2021/07/07 19:48:31;;;;;;;1.53;1.20;;;22.80;91.50;;;;;;5996259;24;20494;-87
2021/07/07 19:51:07;;;;;;;1.23;1.10;;;22.60;92.20;;;;;;6064734;23;20482;-87
2021/07/07 19:53:38;;;;;;;1.97;1.40;;;22.40;92.80;;;;;;6083042;23;20462;-87
2021/07/07 19:56:10;;;;;;;2.20;1.13;;;22.30;93.70;;;;;;6080705;23;20450;-86
2021/07/07 20:04:35;;;;;;;1.40;1.20;;;21.90;95.30;;;;;;6078560;23;20411;-85
2021/07/07 20:07:05;;;;;;;1.30;1.20;;;21.80;96.00;;;;;;6083736;23;20403;-86
2021/07/07 20:09:47;;;;;;;;;;;;;;;;;;;;;
2021/07/07 20:12:14;;;;;;;1.50;1.40;;;21.50;97.30;;;;;;6079605;23;20438;-85
2021/07/07 20:14:41;;;;;;;1.33;1.30;;;21.40;97.70;;;;;;6083017;23;20488;-86
2021/07/07 20:17:09;;;;;;;1.00;1.00;;;21.40;98.20;;;;;;6081761;23;20438;-87
2021/07/07 20:19:37;;;;;;;1.33;1.23;;;21.30;98.70;;;;;;6084605;23;20465;-86
2021/07/07 20:22:05;;;;;;;1.37;1.27;;;21.10;98.90;;;;;;6083799;23;20514;-86
2021/07/07 20:24:31;;;;;;;1.30;1.00;;;21.10;99.40;;;;;;6083862;23;20466;-86
2021/07/07 20:26:58;;;;;;;1.40;1.30;;;20.90;99.90;;;;;;6083055;23;20408;-86
2021/07/07 20:29:26;;;;;;;1.10;1.00;;;20.90;99.90;;;;;;6085151;23;20409;-87
2021/07/07 20:31:53;;;;;;;1.20;1.10;;;20.90;99.90;;;;;;6085458;23;20430;-86
2021/07/07 20:34:21;;;;;;;1.00;1.00;;;20.80;99.90;;;;;;6089307;23;20432;-88
2021/07/07 20:36:48;;;;;;;2.77;1.80;;;20.70;99.90;;;;;;6086350;23;20450;-85
2021/07/07 20:39:15;;;;;;;2.13;1.33;;;20.70;99.90;;;;;;6083651;23;20402;-87
2021/07/07 20:41:42;;;;;;;2.60;1.77;;;20.60;99.90;;;;;;6084510;23;20429;-86
2021/07/07 20:44:09;;;;;;;1.40;1.30;;;20.60;99.90;;;;;;6085226;23;20444;-85
2021/07/07 20:46:36;;;;;;;1.93;1.73;;;20.50;99.90;;;;;;6085697;23;20408;-86
2021/07/07 20:49:03;;;;;;;1.50;1.40;;;20.50;99.90;;;;;;6085529;23;20422;-87
2021/07/07 20:51:31;;;;;;;2.20;2.10;;;20.50;99.90;;;;;;6084983;23;20504;-87
2021/07/07 20:54:00;;;;;;;3.60;2.20;;;20.40;99.90;;;;;;6086056;23;20444;-86
2021/07/07 20:56:27;;;;;;;2.27;2.07;;;20.40;99.90;;;;;;6085070;23;20449;-86
2021/07/07 20:58:54;;;;;;;1.90;1.63;;;20.30;99.90;;;;;;6085440;23;20801;-86
2021/07/07 21:01:21;;;;;;;1.77;1.67;;;20.30;99.90;;;;;;6085267;23;20449;-87
2021/07/07 21:03:48;;;;;;;2.40;1.63;;;20.20;99.90;;;;;;6085613;23;20449;-86
2021/07/07 21:06:17;;;;;;;2.07;1.90;;;20.20;99.90;;;;;;6085666;23;20414;-86
2021/07/07 21:08:46;;;;;;;2.50;1.63;;;20.20;99.90;;;;;;6084916;23;20454;-86
2021/07/07 21:11:12;;;;;;;1.80;1.70;;;20.20;99.90;;;;;;6084840;23;20426;-86
2021/07/07 21:13:39;;;;;;;3.20;1.83;;;20.10;99.90;;;;;;6084635;23;20444;-86
2021/07/07 21:16:08;;;;;;;2.03;1.77;;;20.10;99.90;;;;;;6084349;23;20425;-86
2021/07/07 21:18:35;;;;;;;2.57;2.23;;;20.00;99.90;;;;;;6085723;23;20447;-86
2021/07/07 21:21:04;;;;;;;1.80;1.70;;;20.00;99.90;;;;;;6084465;23;20421;-88
2021/07/07 21:23:46;;;;;;;2.97;2.67;;;20.00;99.90;;;;;;6084295;23;20413;-86
2021/07/07 21:26:18;;;;;;;2.30;2.10;;;19.90;99.90;;;;;;6084573;23;20941;-86
2021/07/07 21:28:51;;;;;;;3.20;2.00;;;19.90;99.90;;;;;;6084318;23;20439;-87
2021/07/07 21:31:18;;;;;;;3.03;2.60;;;19.80;99.90;;;;;;6083463;23;20385;-85
2021/07/07 21:33:47;;;;;;;2.23;2.03;;;19.80;99.90;;;;;;6083865;23;20424;-84
2021/07/07 21:36:17;;;;;;;2.73;2.53;;;19.70;99.90;;;;;;6082400;23;20427;-85
2021/07/07 21:39:06;;;;;;;2.90;2.60;;;19.60;99.90;;;;;;6084672;23;20398;-86
2021/07/07 21:41:40;;;;;;;1.90;1.80;;;19.60;99.90;;;;;;6083351;23;20448;-85
2021/07/07 21:44:19;;;;;;;2.10;2.00;;;19.50;99.90;;;;;;6084629;23;20945;-87
2021/07/07 21:47:20;;;;;;;3.03;2.83;;;19.50;99.90;;;;;;6084194;23;20413;-86
2021/07/07 21:49:51;;;;;;;2.53;2.07;;;19.40;99.90;;;;;;6088092;23;20408;-86
2021/07/07 21:52:24;;;;;;;2.57;2.37;;;19.30;99.90;;;;;;6090125;23;20936;-86
2021/07/07 21:54:51;;;;;;;2.67;2.47;;;19.30;99.90;;;;;;6089360;23;20897;-87
2021/07/07 21:57:42;;;;;;;3.30;3.10;;;19.30;99.90;;;;;;6082730;23;20452;-86
2021/07/07 22:00:13;;;;;;;3.00;2.80;;;19.20;99.90;;;;;;6082194;23;20401;-86
2021/07/07 22:02:40;;;;;;;3.30;2.70;;;19.20;99.90;;;;;;6083634;23;20489;-85
2021/07/07 22:05:09;;;;;;;2.90;2.43;;;19.10;99.90;;;;;;6083131;23;20415;-86
2021/07/07 22:07:37;;;;;;;3.53;2.97;;;19.10;99.90;;;;;;6083794;23;20888;-86
2021/07/07 22:10:05;;;;;;;4.00;2.70;;;19.10;99.90;;;;;;6083464;23;20427;-86
2021/07/07 22:12:32;;;;;;;3.10;2.80;;;19.00;99.90;;;;;;6082410;23;21043;-87
2021/07/07 22:15:00;;;;;;;3.53;3.27;;;19.00;99.90;;;;;;6082934;23;20451;-87
2021/07/07 22:17:27;;;;;;;4.10;3.80;;;18.90;99.90;;;;;;6083180;23;20452;-86
2021/07/07 22:19:57;;;;;;;4.00;2.83;;;18.80;99.90;;;;;;6082501;23;20398;-86
2021/07/07 22:22:24;;;;;;;4.20;3.20;;;18.80;99.90;;;;;;6081831;23;20444;-86
2021/07/07 22:24:51;;;;;;;3.77;3.47;;;18.80;99.90;;;;;;6083062;23;20499;-86
2021/07/07 22:27:19;;;;;;;3.07;2.80;;;18.80;99.90;;;;;;6082928;23;20408;-86
2021/07/07 22:29:46;;;;;;;3.27;2.97;;;18.80;99.90;;;;;;6083434;23;20416;-86
2021/07/07 22:32:16;;;;;;;2.97;2.77;;;18.80;99.90;;;;;;6083089;23;20488;-86
2021/07/07 22:34:43;;;;;;;3.40;3.10;;;18.80;99.90;;;;;;6082476;23;20431;-86
2021/07/07 22:37:10;;;;;;;4.00;3.60;;;18.80;99.90;;;;;;6082534;23;20780;-86
2021/07/07 22:39:37;;;;;;;2.70;2.50;;;18.80;99.90;;;;;;6083237;23;20452;-86
2021/07/07 22:42:04;;;;;;;3.10;2.80;;;18.80;99.90;;;;;;6082242;23;20464;-87
2021/07/07 22:44:31;;;;;;;2.57;2.47;;;18.80;99.90;;;;;;6082647;23;20491;-86
2021/07/07 22:46:59;;;;;;;2.50;2.30;;;18.80;99.90;;;;;;6082788;23;20507;-86
2021/07/07 22:49:35;;;;;;;3.23;3.03;;;18.80;99.90;;;;;;6083237;23;20408;-86
2021/07/07 22:52:04;;;;;;;3.10;2.80;;;18.80;99.90;;;;;;6082118;23;20440;-86
2021/07/07 22:54:39;;;;;;;4.20;3.90;;;18.80;99.90;;;;;;6082422;23;20413;-86
2021/07/07 22:57:08;;;;;;;4.20;3.90;;;18.80;99.90;;;;;;6083261;23;20443;-85
2021/07/07 22:59:36;;;;;;;3.00;2.80;;;18.80;99.90;;;;;;6083354;23;20400;-86
2021/07/07 23:02:16;;;;;;;3.73;3.43;;;18.80;99.90;;;;;;6082456;23;20439;-86
2021/07/07 23:04:49;;;;;;;3.80;3.50;;;18.90;99.90;;;;;;6082239;23;20443;-86
2021/07/07 23:07:23;;;;;;;5.23;4.73;;;18.80;99.90;;;;;;6082366;23;20404;-86
2021/07/07 23:10:09;;;;;;;3.70;3.30;;;18.80;99.90;;;;;;6083328;23;20393;-86
2021/07/07 23:12:44;;;;;;;7.20;3.83;;;18.80;99.90;;;;;;6079445;23;20490;-85
2021/07/07 23:15:21;;;;;;;4.10;3.70;;;18.80;99.90;;;;;;6072457;23;20416;-86
2021/07/07 23:17:52;;;;;;;3.80;3.50;;;18.70;99.90;;;;;;6074037;23;20440;-85
2021/07/07 23:20:24;;;;;;;2.90;2.70;;;18.80;99.90;;;;;;6073521;23;20464;-85
2021/07/07 23:22:52;;;;;;;3.07;2.80;;;18.80;99.90;;;;;;6072696;23;20472;-86
2021/07/07 23:25:22;;;;;;;5.00;4.60;;;18.80;99.90;;;;;;6074198;23;20422;-85
2021/07/07 23:27:49;;;;;;;4.13;3.90;;;18.80;99.90;;;;;;6073189;23;20503;-86
2021/07/07 23:30:17;;;;;;;12.07;4.00;;;18.70;99.90;;;;;;6073290;23;20419;-85
2021/07/07 23:32:46;;;;;;;4.77;3.80;;;18.50;99.90;;;;;;6073384;23;20446;-86
2021/07/07 23:35:15;;;;;;;4.83;4.27;;;18.50;99.90;;;;;;6075527;23;20423;-86
2021/07/07 23:37:44;;;;;;;3.70;3.40;;;18.50;99.90;;;;;;6075590;23;20534;-86
2021/07/07 23:40:13;;;;;;;3.97;3.67;;;18.60;99.90;;;;;;6075943;23;20428;-86
2021/07/07 23:42:40;;;;;;;4.73;3.80;;;18.60;99.90;;;;;;6075218;23;20511;-86
2021/07/07 23:45:08;;;;;;;3.83;3.53;;;18.60;99.90;;;;;;6075377;23;20416;-85
2021/07/07 23:47:35;;;;;;;3.57;3.27;;;18.60;99.90;;;;;;6074746;23;20904;-86
2021/07/07 23:50:03;;;;;;;5.67;3.50;;;18.60;99.90;;;;;;6075923;23;20483;-85
2021/07/07 23:52:30;;;;;;;5.60;3.10;;;18.50;99.90;;;;;;6075077;23;20436;-86
2021/07/07 23:54:58;;;;;;;4.20;3.80;;;18.50;99.90;;;;;;6076994;23;20451;-85
2021/07/07 23:57:25;;;;;;;3.60;3.40;;;18.60;99.90;;;;;;6076198;23;20448;-85
2021/07/07 23:59:52;;;;;;;5.13;3.90;;;18.60;99.90;;;;;;6075631;23;20752;-86
